KBKE/BKE METAR and TAF weather

Enter ICAO airport designator
Station Type Date Time Source
KBKE METAR 2019/08/19 12:53 UTC NOAA

KBKE 191253Z AUTO 00000KT 10SM CLR 09/07 A2994 RMK AO2 SLP111 T00890067


Station Type Date Time Source
KBKE Decoded METAR 2019/08/19 12:53 UTC NOAA

Station name not available
Aug 19, 2019 - 08:53 AM EDT / 2019.08.19 1253 UTC
Wind: Calm:0
Visibility: 10 mile(s):0
Sky conditions: clear
Temperature: 48.0 F (8.9 C)
Dew Point: 44.1 F (6.7 C)
Relative Humidity: 86%
Pressure (altimeter): 29.94 in. Hg (1013 hPa)
ob: KBKE 191253Z AUTO 00000KT 10SM CLR 09/07 A2994 RMK AO2 SLP111 T00890067
cycle: 13

Station Type Date Time Source
KBKE TAF 2019/08/19 12:22 UTC NOAA

TAF KBKE 191120Z 1912/2012 VRB06KT P6SM SKC
FM191900 30007KT P6SM SKC
FM200200 VRB05KT P6SM BKN250

Example: see airport list